sensor_id;sensor_type;location;lat;lon;timestamp;P1;durP1;ratioP1;P2;durP2;ratioP2
8895;SDS011;4484;48.928;10.066;2022-10-26T00:03:37;2.17;;;1.43;;
8895;SDS011;4484;48.928;10.066;2022-10-26T00:06:12;3.43;;;1.63;;
8895;SDS011;4484;48.928;10.066;2022-10-26T00:08:40;2.20;;;1.70;;
8895;SDS011;4484;48.928;10.066;2022-10-26T00:11:08;6.13;;;2.27;;
8895;SDS011;4484;48.928;10.066;2022-10-26T00:13:36;4.50;;;2.20;;
8895;SDS011;4484;48.928;10.066;2022-10-26T00:16:10;3.07;;;2.00;;
8895;SDS011;4484;48.928;10.066;2022-10-26T00:18:42;3.83;;;2.20;;
8895;SDS011;4484;48.928;10.066;2022-10-26T00:21:09;2.63;;;2.00;;
8895;SDS011;4484;48.928;10.066;2022-10-26T00:23:37;1.93;;;1.50;;
8895;SDS011;4484;48.928;10.066;2022-10-26T00:26:04;3.33;;;2.13;;
8895;SDS011;4484;48.928;10.066;2022-10-26T00:28:31;3.13;;;1.63;;
8895;SDS011;4484;48.928;10.066;2022-10-26T00:30:59;3.00;;;1.97;;
8895;SDS011;4484;48.928;10.066;2022-10-26T00:33:27;8.60;;;1.97;;
8895;SDS011;4484;48.928;10.066;2022-10-26T00:35:55;3.07;;;1.47;;
8895;SDS011;4484;48.928;10.066;2022-10-26T00:38:22;4.00;;;1.50;;
8895;SDS011;4484;48.928;10.066;2022-10-26T00:40:49;3.27;;;1.37;;
8895;SDS011;4484;48.928;10.066;2022-10-26T00:45:52;1.27;;;1.13;;
8895;SDS011;4484;48.928;10.066;2022-10-26T00:48:22;4.83;;;1.60;;
8895;SDS011;4484;48.928;10.066;2022-10-26T00:50:52;3.23;;;1.30;;
8895;SDS011;4484;48.928;10.066;2022-10-26T00:53:21;2.57;;;1.13;;
8895;SDS011;4484;48.928;10.066;2022-10-26T00:55:49;2.23;;;1.10;;
8895;SDS011;4484;48.928;10.066;2022-10-26T00:58:17;3.10;;;1.57;;
8895;SDS011;4484;48.928;10.066;2022-10-26T01:00:46;4.90;;;1.63;;
8895;SDS011;4484;48.928;10.066;2022-10-26T01:03:15;2.27;;;1.43;;
8895;SDS011;4484;48.928;10.066;2022-10-26T01:05:43;2.27;;;1.17;;
8895;SDS011;4484;48.928;10.066;2022-10-26T01:08:13;2.70;;;1.23;;
8895;SDS011;4484;48.928;10.066;2022-10-26T01:10:42;1.80;;;0.87;;
8895;SDS011;4484;48.928;10.066;2022-10-26T01:13:09;2.13;;;0.90;;
8895;SDS011;4484;48.928;10.066;2022-10-26T01:18:39;1.27;;;0.67;;
8895;SDS011;4484;48.928;10.066;2022-10-26T01:32:11;1.23;;;0.70;;
8895;SDS011;4484;48.928;10.066;2022-10-26T01:34:45;0.80;;;0.67;;
8895;SDS011;4484;48.928;10.066;2022-10-26T01:37:27;1.33;;;0.63;;
8895;SDS011;4484;48.928;10.066;2022-10-26T01:39:58;0.60;;;0.60;;
8895;SDS011;4484;48.928;10.066;2022-10-26T01:42:42;1.00;;;0.60;;
8895;SDS011;4484;48.928;10.066;2022-10-26T01:45:13;0.50;;;0.50;;
8895;SDS011;4484;48.928;10.066;2022-10-26T01:47:41;0.70;;;0.50;;
8895;SDS011;4484;48.928;10.066;2022-10-26T01:50:10;0.40;;;0.40;;
8895;SDS011;4484;48.928;10.066;2022-10-26T01:52:43;1.40;;;0.70;;
8895;SDS011;4484;48.928;10.066;2022-10-26T01:58:12;1.40;;;0.70;;
8895;SDS011;4484;48.928;10.066;2022-10-26T02:00:45;1.37;;;1.00;;
8895;SDS011;4484;48.928;10.066;2022-10-26T02:04:08;1.07;;;0.70;;
8895;SDS011;4484;48.928;10.066;2022-10-26T02:06:29;1.00;;;0.80;;
8895;SDS011;4484;48.928;10.066;2022-10-26T02:11:53;1.57;;;0.90;;
8895;SDS011;4484;48.928;10.066;2022-10-26T02:17:23;1.10;;;0.63;;
8895;SDS011;4484;48.928;10.066;2022-10-26T02:20:21;1.97;;;0.93;;
8895;SDS011;4484;48.928;10.066;2022-10-26T02:22:57;2.57;;;0.90;;
8895;SDS011;4484;48.928;10.066;2022-10-26T02:25:30;2.20;;;0.80;;
8895;SDS011;4484;48.928;10.066;2022-10-26T02:28:00;1.30;;;0.60;;
8895;SDS011;4484;48.928;10.066;2022-10-26T02:30:31;0.57;;;0.57;;
8895;SDS011;4484;48.928;10.066;2022-10-26T02:33:00;0.80;;;0.63;;
8895;SDS011;4484;48.928;10.066;2022-10-26T02:35:30;0.70;;;0.50;;
8895;SDS011;4484;48.928;10.066;2022-10-26T02:38:00;1.07;;;0.70;;
8895;SDS011;4484;48.928;10.066;2022-10-26T02:40:30;1.10;;;0.60;;
8895;SDS011;4484;48.928;10.066;2022-10-26T02:43:00;1.17;;;0.60;;
8895;SDS011;4484;48.928;10.066;2022-10-26T02:45:32;0.80;;;0.80;;
8895;SDS011;4484;48.928;10.066;2022-10-26T02:48:04;0.80;;;0.70;;
8895;SDS011;4484;48.928;10.066;2022-10-26T02:50:32;1.70;;;1.20;;
8895;SDS011;4484;48.928;10.066;2022-10-26T02:53:14;1.70;;;1.10;;
8895;SDS011;4484;48.928;10.066;2022-10-26T02:55:53;3.93;;;1.10;;
8895;SDS011;4484;48.928;10.066;2022-10-26T02:58:25;2.37;;;1.63;;
8895;SDS011;4484;48.928;10.066;2022-10-26T03:00:54;2.83;;;1.57;;
8895;SDS011;4484;48.928;10.066;2022-10-26T03:03:22;1.97;;;1.23;;
8895;SDS011;4484;48.928;10.066;2022-10-26T03:05:49;3.40;;;1.63;;
8895;SDS011;4484;48.928;10.066;2022-10-26T03:08:16;5.13;;;1.60;;
8895;SDS011;4484;48.928;10.066;2022-10-26T03:10:43;4.03;;;1.83;;
8895;SDS011;4484;48.928;10.066;2022-10-26T03:13:11;6.67;;;2.17;;
8895;SDS011;4484;48.928;10.066;2022-10-26T03:15:39;2.53;;;1.87;;
8895;SDS011;4484;48.928;10.066;2022-10-26T03:18:06;3.83;;;2.43;;
8895;SDS011;4484;48.928;10.066;2022-10-26T03:20:33;2.37;;;1.70;;
8895;SDS011;4484;48.928;10.066;2022-10-26T03:23:01;3.17;;;1.77;;
8895;SDS011;4484;48.928;10.066;2022-10-26T03:25:27;1.80;;;1.40;;
8895;SDS011;4484;48.928;10.066;2022-10-26T03:27:58;4.53;;;1.80;;
8895;SDS011;4484;48.928;10.066;2022-10-26T03:30:27;3.23;;;1.40;;
8895;SDS011;4484;48.928;10.066;2022-10-26T03:32:55;3.77;;;1.50;;
8895;SDS011;4484;48.928;10.066;2022-10-26T03:35:22;5.23;;;1.60;;
8895;SDS011;4484;48.928;10.066;2022-10-26T03:37:49;2.17;;;1.27;;
8895;SDS011;4484;48.928;10.066;2022-10-26T03:40:17;1.47;;;1.00;;
8895;SDS011;4484;48.928;10.066;2022-10-26T03:42:43;1.70;;;1.40;;
8895;SDS011;4484;48.928;10.066;2022-10-26T03:45:10;2.40;;;1.10;;
8895;SDS011;4484;48.928;10.066;2022-10-26T03:47:47;1.33;;;1.00;;
8895;SDS011;4484;48.928;10.066;2022-10-26T03:50:16;1.17;;;1.03;;
8895;SDS011;4484;48.928;10.066;2022-10-26T03:52:45;1.20;;;1.00;;
8895;SDS011;4484;48.928;10.066;2022-10-26T03:55:13;1.33;;;1.00;;
8895;SDS011;4484;48.928;10.066;2022-10-26T03:57:41;0.70;;;0.70;;
8895;SDS011;4484;48.928;10.066;2022-10-26T04:00:09;0.83;;;0.73;;
8895;SDS011;4484;48.928;10.066;2022-10-26T04:02:37;0.90;;;0.83;;
8895;SDS011;4484;48.928;10.066;2022-10-26T04:05:04;1.73;;;1.50;;
8895;SDS011;4484;48.928;10.066;2022-10-26T04:07:32;1.53;;;1.30;;
8895;SDS011;4484;48.928;10.066;2022-10-26T04:09:59;2.03;;;1.20;;
8895;SDS011;4484;48.928;10.066;2022-10-26T04:12:26;1.67;;;1.20;;
8895;SDS011;4484;48.928;10.066;2022-10-26T04:14:53;3.30;;;1.90;;
8895;SDS011;4484;48.928;10.066;2022-10-26T04:17:23;6.20;;;1.60;;
8895;SDS011;4484;48.928;10.066;2022-10-26T04:19:50;5.00;;;1.93;;
8895;SDS011;4484;48.928;10.066;2022-10-26T04:22:17;3.93;;;2.47;;
8895;SDS011;4484;48.928;10.066;2022-10-26T04:24:44;6.33;;;2.10;;
8895;SDS011;4484;48.928;10.066;2022-10-26T04:27:10;3.00;;;1.90;;
8895;SDS011;4484;48.928;10.066;2022-10-26T04:29:37;3.23;;;1.60;;
8895;SDS011;4484;48.928;10.066;2022-10-26T04:32:04;4.00;;;1.60;;
8895;SDS011;4484;48.928;10.066;2022-10-26T04:34:32;4.97;;;1.47;;
8895;SDS011;4484;48.928;10.066;2022-10-26T04:36:59;5.37;;;1.47;;
8895;SDS011;4484;48.928;10.066;2022-10-26T04:39:26;3.33;;;1.37;;
8895;SDS011;4484;48.928;10.066;2022-10-26T04:41:53;3.33;;;1.43;;
8895;SDS011;4484;48.928;10.066;2022-10-26T04:44:19;2.80;;;1.50;;
8895;SDS011;4484;48.928;10.066;2022-10-26T04:46:46;5.13;;;1.50;;
8895;SDS011;4484;48.928;10.066;2022-10-26T04:49:13;5.07;;;1.53;;
8895;SDS011;4484;48.928;10.066;2022-10-26T04:51:40;6.70;;;1.33;;
8895;SDS011;4484;48.928;10.066;2022-10-26T04:54:07;3.07;;;1.20;;
8895;SDS011;4484;48.928;10.066;2022-10-26T04:56:34;5.90;;;1.40;;
8895;SDS011;4484;48.928;10.066;2022-10-26T04:59:01;2.40;;;1.30;;
8895;SDS011;4484;48.928;10.066;2022-10-26T05:01:29;1.53;;;1.37;;
8895;SDS011;4484;48.928;10.066;2022-10-26T05:03:57;1.57;;;1.40;;
8895;SDS011;4484;48.928;10.066;2022-10-26T05:06:24;1.73;;;1.17;;
8895;SDS011;4484;48.928;10.066;2022-10-26T05:08:51;1.37;;;1.10;;
8895;SDS011;4484;48.928;10.066;2022-10-26T05:11:17;4.67;;;1.20;;
8895;SDS011;4484;48.928;10.066;2022-10-26T05:13:45;2.23;;;1.47;;
8895;SDS011;4484;48.928;10.066;2022-10-26T05:16:13;1.80;;;1.30;;
8895;SDS011;4484;48.928;10.066;2022-10-26T05:18:41;1.60;;;1.20;;
8895;SDS011;4484;48.928;10.066;2022-10-26T05:21:08;3.00;;;1.30;;
8895;SDS011;4484;48.928;10.066;2022-10-26T05:23:35;4.00;;;1.47;;
8895;SDS011;4484;48.928;10.066;2022-10-26T05:26:02;3.93;;;1.60;;
8895;SDS011;4484;48.928;10.066;2022-10-26T05:28:30;3.57;;;1.60;;
8895;SDS011;4484;48.928;10.066;2022-10-26T05:30:57;3.83;;;1.50;;
8895;SDS011;4484;48.928;10.066;2022-10-26T05:33:24;3.50;;;1.50;;
8895;SDS011;4484;48.928;10.066;2022-10-26T05:35:53;3.20;;;1.67;;
8895;SDS011;4484;48.928;10.066;2022-10-26T05:38:20;6.00;;;1.73;;
8895;SDS011;4484;48.928;10.066;2022-10-26T05:40:49;2.87;;;1.37;;
8895;SDS011;4484;48.928;10.066;2022-10-26T05:43:17;3.10;;;1.50;;
8895;SDS011;4484;48.928;10.066;2022-10-26T05:45:45;1.80;;;1.10;;
8895;SDS011;4484;48.928;10.066;2022-10-26T05:48:12;8.60;;;1.80;;
8895;SDS011;4484;48.928;10.066;2022-10-26T05:50:39;7.73;;;2.30;;
8895;SDS011;4484;48.928;10.066;2022-10-26T05:53:06;4.63;;;1.60;;
8895;SDS011;4484;48.928;10.066;2022-10-26T05:55:33;7.47;;;2.37;;
8895;SDS011;4484;48.928;10.066;2022-10-26T05:58:00;6.53;;;1.87;;
8895;SDS011;4484;48.928;10.066;2022-10-26T06:00:27;8.23;;;2.00;;
8895;SDS011;4484;48.928;10.066;2022-10-26T06:05:44;8.07;;;2.47;;
8895;SDS011;4484;48.928;10.066;2022-10-26T06:08:21;3.90;;;2.10;;
8895;SDS011;4484;48.928;10.066;2022-10-26T06:10:50;4.03;;;2.00;;
8895;SDS011;4484;48.928;10.066;2022-10-26T06:13:19;7.40;;;2.40;;
8895;SDS011;4484;48.928;10.066;2022-10-26T06:21:34;3.40;;;1.20;;
8895;SDS011;4484;48.928;10.066;2022-10-26T06:30:20;6.67;;;2.50;;
8895;SDS011;4484;48.928;10.066;2022-10-26T06:32:48;3.70;;;2.70;;
8895;SDS011;4484;48.928;10.066;2022-10-26T06:38:08;4.80;;;2.83;;
8895;SDS011;4484;48.928;10.066;2022-10-26T06:40:41;7.37;;;2.87;;
8895;SDS011;4484;48.928;10.066;2022-10-26T06:43:11;4.60;;;2.07;;
8895;SDS011;4484;48.928;10.066;2022-10-26T06:45:45;3.23;;;1.63;;
8895;SDS011;4484;48.928;10.066;2022-10-26T06:48:18;3.33;;;1.70;;
8895;SDS011;4484;48.928;10.066;2022-10-26T06:50:51;2.80;;;1.80;;
8895;SDS011;4484;48.928;10.066;2022-10-26T06:55:54;6.73;;;3.80;;
8895;SDS011;4484;48.928;10.066;2022-10-26T06:58:26;5.13;;;2.50;;
8895;SDS011;4484;48.928;10.066;2022-10-26T07:00:56;5.63;;;2.30;;
8895;SDS011;4484;48.928;10.066;2022-10-26T07:03:23;7.67;;;2.57;;
8895;SDS011;4484;48.928;10.066;2022-10-26T07:05:50;6.10;;;2.87;;
8895;SDS011;4484;48.928;10.066;2022-10-26T07:08:17;7.97;;;2.00;;
8895;SDS011;4484;48.928;10.066;2022-10-26T07:10:45;3.17;;;1.83;;
8895;SDS011;4484;48.928;10.066;2022-10-26T07:13:12;3.17;;;1.60;;
8895;SDS011;4484;48.928;10.066;2022-10-26T07:15:39;3.87;;;2.37;;
8895;SDS011;4484;48.928;10.066;2022-10-26T07:18:08;7.63;;;4.20;;
8895;SDS011;4484;48.928;10.066;2022-10-26T07:20:38;7.53;;;3.30;;
8895;SDS011;4484;48.928;10.066;2022-10-26T07:23:07;5.50;;;3.37;;
8895;SDS011;4484;48.928;10.066;2022-10-26T07:25:38;5.33;;;3.53;;
8895;SDS011;4484;48.928;10.066;2022-10-26T07:28:06;5.43;;;3.50;;
8895;SDS011;4484;48.928;10.066;2022-10-26T07:30:36;10.70;;;5.10;;
8895;SDS011;4484;48.928;10.066;2022-10-26T07:33:08;7.37;;;5.13;;
8895;SDS011;4484;48.928;10.066;2022-10-26T07:35:37;8.87;;;5.30;;
8895;SDS011;4484;48.928;10.066;2022-10-26T07:38:04;8.17;;;5.40;;
8895;SDS011;4484;48.928;10.066;2022-10-26T07:40:31;5.73;;;4.27;;
8895;SDS011;4484;48.928;10.066;2022-10-26T07:42:59;7.07;;;4.30;;
8895;SDS011;4484;48.928;10.066;2022-10-26T07:45:27;5.63;;;3.57;;
8895;SDS011;4484;48.928;10.066;2022-10-26T07:47:55;7.17;;;3.70;;
8895;SDS011;4484;48.928;10.066;2022-10-26T07:50:22;5.93;;;3.17;;
8895;SDS011;4484;48.928;10.066;2022-10-26T07:52:49;7.30;;;3.93;;
8895;SDS011;4484;48.928;10.066;2022-10-26T07:55:17;6.67;;;3.17;;
8895;SDS011;4484;48.928;10.066;2022-10-26T07:57:44;3.90;;;2.87;;
8895;SDS011;4484;48.928;10.066;2022-10-26T08:00:19;4.57;;;2.60;;
8895;SDS011;4484;48.928;10.066;2022-10-26T08:02:46;3.53;;;1.60;;
8895;SDS011;4484;48.928;10.066;2022-10-26T08:05:13;5.30;;;1.73;;
8895;SDS011;4484;48.928;10.066;2022-10-26T08:07:41;4.33;;;1.77;;
8895;SDS011;4484;48.928;10.066;2022-10-26T08:10:11;3.50;;;1.53;;
8895;SDS011;4484;48.928;10.066;2022-10-26T08:12:39;3.03;;;1.80;;
8895;SDS011;4484;48.928;10.066;2022-10-26T08:15:08;5.23;;;2.17;;
8895;SDS011;4484;48.928;10.066;2022-10-26T08:17:35;4.47;;;1.80;;
8895;SDS011;4484;48.928;10.066;2022-10-26T08:20:02;4.83;;;1.70;;
8895;SDS011;4484;48.928;10.066;2022-10-26T08:22:29;4.87;;;1.70;;
8895;SDS011;4484;48.928;10.066;2022-10-26T08:24:57;5.80;;;2.00;;
8895;SDS011;4484;48.928;10.066;2022-10-26T08:30:03;4.47;;;2.00;;
8895;SDS011;4484;48.928;10.066;2022-10-26T08:32:30;4.73;;;1.77;;
8895;SDS011;4484;48.928;10.066;2022-10-26T08:34:56;3.60;;;1.80;;
8895;SDS011;4484;48.928;10.066;2022-10-26T08:37:23;8.53;;;1.80;;
8895;SDS011;4484;48.928;10.066;2022-10-26T08:39:51;3.50;;;1.73;;
8895;SDS011;4484;48.928;10.066;2022-10-26T08:42:23;3.83;;;2.40;;
8895;SDS011;4484;48.928;10.066;2022-10-26T08:45:00;5.00;;;2.20;;
8895;SDS011;4484;48.928;10.066;2022-10-26T08:47:34;5.80;;;2.20;;
8895;SDS011;4484;48.928;10.066;2022-10-26T08:50:09;2.80;;;1.90;;
8895;SDS011;4484;48.928;10.066;2022-10-26T08:52:54;2.87;;;1.57;;
8895;SDS011;4484;48.928;10.066;2022-10-26T08:55:43;4.47;;;1.97;;
8895;SDS011;4484;48.928;10.066;2022-10-26T08:58:16;4.73;;;2.00;;
8895;SDS011;4484;48.928;10.066;2022-10-26T09:00:48;4.47;;;2.40;;
8895;SDS011;4484;48.928;10.066;2022-10-26T09:03:17;5.90;;;2.33;;
8895;SDS011;4484;48.928;10.066;2022-10-26T09:05:48;2.90;;;1.90;;
8895;SDS011;4484;48.928;10.066;2022-10-26T09:14:12;3.90;;;1.77;;
8895;SDS011;4484;48.928;10.066;2022-10-26T09:25:21;3.67;;;1.67;;
8895;SDS011;4484;48.928;10.066;2022-10-26T09:27:53;3.47;;;1.77;;
8895;SDS011;4484;48.928;10.066;2022-10-26T09:30:26;4.90;;;2.50;;
8895;SDS011;4484;48.928;10.066;2022-10-26T09:33:01;4.10;;;2.10;;
8895;SDS011;4484;48.928;10.066;2022-10-26T09:46:17;8.33;;;2.10;;
8895;SDS011;4484;48.928;10.066;2022-10-26T09:48:49;8.00;;;1.80;;
8895;SDS011;4484;48.928;10.066;2022-10-26T09:51:19;4.93;;;1.97;;
8895;SDS011;4484;48.928;10.066;2022-10-26T09:53:46;7.50;;;2.03;;
8895;SDS011;4484;48.928;10.066;2022-10-26T09:56:14;4.93;;;2.00;;
8895;SDS011;4484;48.928;10.066;2022-10-26T09:58:42;4.47;;;1.77;;
8895;SDS011;4484;48.928;10.066;2022-10-26T10:06:46;7.43;;;1.83;;
8895;SDS011;4484;48.928;10.066;2022-10-26T10:09:18;5.40;;;2.20;;
8895;SDS011;4484;48.928;10.066;2022-10-26T10:14:22;7.17;;;2.60;;
8895;SDS011;4484;48.928;10.066;2022-10-26T10:17:00;5.40;;;2.03;;
8895;SDS011;4484;48.928;10.066;2022-10-26T10:19:32;9.73;;;2.17;;
8895;SDS011;4484;48.928;10.066;2022-10-26T10:22:07;5.97;;;2.27;;
8895;SDS011;4484;48.928;10.066;2022-10-26T10:24:39;9.50;;;2.40;;
8895;SDS011;4484;48.928;10.066;2022-10-26T10:27:26;7.10;;;3.13;;
8895;SDS011;4484;48.928;10.066;2022-10-26T10:29:55;7.67;;;2.27;;
8895;SDS011;4484;48.928;10.066;2022-10-26T10:32:29;11.50;;;4.97;;
8895;SDS011;4484;48.928;10.066;2022-10-26T10:35:22;4.27;;;2.10;;
8895;SDS011;4484;48.928;10.066;2022-10-26T10:37:50;5.80;;;1.73;;
8895;SDS011;4484;48.928;10.066;2022-10-26T10:40:22;5.07;;;2.00;;
8895;SDS011;4484;48.928;10.066;2022-10-26T10:42:51;4.97;;;2.63;;
8895;SDS011;4484;48.928;10.066;2022-10-26T10:45:24;11.20;;;4.80;;
8895;SDS011;4484;48.928;10.066;2022-10-26T10:50:50;11.67;;;6.20;;
8895;SDS011;4484;48.928;10.066;2022-10-26T10:53:22;5.73;;;2.07;;
8895;SDS011;4484;48.928;10.066;2022-10-26T10:56:01;10.53;;;3.20;;
8895;SDS011;4484;48.928;10.066;2022-10-26T11:01:39;5.23;;;2.40;;
8895;SDS011;4484;48.928;10.066;2022-10-26T11:07:16;4.85;;;1.77;;
8895;SDS011;4484;48.928;10.066;2022-10-26T11:09:46;8.03;;;1.87;;
8895;SDS011;4484;48.928;10.066;2022-10-26T11:12:32;2.83;;;1.33;;
8895;SDS011;4484;48.928;10.066;2022-10-26T11:15:07;8.50;;;2.00;;
8895;SDS011;4484;48.928;10.066;2022-10-26T11:20:29;7.13;;;1.98;;
8895;SDS011;4484;48.928;10.066;2022-10-26T11:26:16;6.35;;;1.30;;
8895;SDS011;4484;48.928;10.066;2022-10-26T11:28:59;4.53;;;1.83;;
8895;SDS011;4484;48.928;10.066;2022-10-26T11:31:31;4.43;;;1.42;;
8895;SDS011;4484;48.928;10.066;2022-10-26T11:34:12;3.65;;;1.30;;
8895;SDS011;4484;48.928;10.066;2022-10-26T11:37:11;5.25;;;1.67;;
8895;SDS011;4484;48.928;10.066;2022-10-26T11:43:15;5.18;;;1.63;;
8895;SDS011;4484;48.928;10.066;2022-10-26T11:46:09;5.13;;;1.40;;
8895;SDS011;4484;48.928;10.066;2022-10-26T11:49:31;6.15;;;1.88;;
8895;SDS011;4484;48.928;10.066;2022-10-26T11:54:32;5.32;;;1.52;;
8895;SDS011;4484;48.928;10.066;2022-10-26T11:57:06;5.10;;;1.63;;
8895;SDS011;4484;48.928;10.066;2022-10-26T11:59:34;3.90;;;1.65;;
8895;SDS011;4484;48.928;10.066;2022-10-26T12:02:13;5.65;;;1.70;;
8895;SDS011;4484;48.928;10.066;2022-10-26T12:04:43;5.72;;;1.92;;
8895;SDS011;4484;48.928;10.066;2022-10-26T12:07:22;5.25;;;1.92;;
8895;SDS011;4484;48.928;10.066;2022-10-26T12:09:53;7.13;;;1.58;;
8895;SDS011;4484;48.928;10.066;2022-10-26T12:14:56;5.82;;;1.52;;
8895;SDS011;4484;48.928;10.066;2022-10-26T12:23:16;9.63;;;1.85;;
8895;SDS011;4484;48.928;10.066;2022-10-26T12:39:29;6.05;;;1.60;;
8895;SDS011;4484;48.928;10.066;2022-10-26T12:47:07;8.93;;;2.05;;
8895;SDS011;4484;48.928;10.066;2022-10-26T12:57:56;4.03;;;1.70;;
8895;SDS011;4484;48.928;10.066;2022-10-26T13:00:53;6.55;;;1.92;;
8895;SDS011;4484;48.928;10.066;2022-10-26T13:09:20;8.23;;;2.38;;
8895;SDS011;4484;48.928;10.066;2022-10-26T13:11:51;10.18;;;2.22;;
8895;SDS011;4484;48.928;10.066;2022-10-26T13:14:21;4.47;;;1.60;;
8895;SDS011;4484;48.928;10.066;2022-10-26T13:16:51;4.63;;;1.83;;
8895;SDS011;4484;48.928;10.066;2022-10-26T13:19:26;4.68;;;2.35;;
8895;SDS011;4484;48.928;10.066;2022-10-26T13:21:58;7.22;;;2.15;;
8895;SDS011;4484;48.928;10.066;2022-10-26T13:24:27;6.28;;;2.03;;
8895;SDS011;4484;48.928;10.066;2022-10-26T13:30:12;3.85;;;1.63;;
8895;SDS011;4484;48.928;10.066;2022-10-26T13:32:29;3.47;;;1.60;;
8895;SDS011;4484;48.928;10.066;2022-10-26T13:35:00;9.52;;;2.25;;
8895;SDS011;4484;48.928;10.066;2022-10-26T13:37:29;19.80;;;10.98;;
8895;SDS011;4484;48.928;10.066;2022-10-26T13:39:59;13.80;;;6.45;;
8895;SDS011;4484;48.928;10.066;2022-10-26T13:42:36;9.65;;;3.22;;
8895;SDS011;4484;48.928;10.066;2022-10-26T13:45:38;6.85;;;2.33;;
8895;SDS011;4484;48.928;10.066;2022-10-26T13:48:17;3.30;;;1.70;;
8895;SDS011;4484;48.928;10.066;2022-10-26T13:50:54;5.50;;;2.08;;
8895;SDS011;4484;48.928;10.066;2022-10-26T13:53:40;5.65;;;2.10;;
8895;SDS011;4484;48.928;10.066;2022-10-26T13:59:00;4.18;;;1.55;;
8895;SDS011;4484;48.928;10.066;2022-10-26T14:01:29;8.55;;;1.90;;
8895;SDS011;4484;48.928;10.066;2022-10-26T14:03:57;5.93;;;2.05;;
8895;SDS011;4484;48.928;10.066;2022-10-26T14:06:33;4.63;;;1.52;;
8895;SDS011;4484;48.928;10.066;2022-10-26T14:09:04;4.70;;;1.77;;
8895;SDS011;4484;48.928;10.066;2022-10-26T14:11:45;6.47;;;1.60;;
8895;SDS011;4484;48.928;10.066;2022-10-26T14:14:17;5.45;;;1.35;;
8895;SDS011;4484;48.928;10.066;2022-10-26T14:16:47;3.97;;;1.77;;
8895;SDS011;4484;48.928;10.066;2022-10-26T14:19:35;7.65;;;2.50;;
8895;SDS011;4484;48.928;10.066;2022-10-26T14:22:05;4.82;;;1.73;;
8895;SDS011;4484;48.928;10.066;2022-10-26T14:24:33;5.97;;;2.08;;
8895;SDS011;4484;48.928;10.066;2022-10-26T14:27:17;5.68;;;2.30;;
8895;SDS011;4484;48.928;10.066;2022-10-26T14:29:46;7.37;;;2.13;;
8895;SDS011;4484;48.928;10.066;2022-10-26T14:32:33;8.07;;;2.10;;
8895;SDS011;4484;48.928;10.066;2022-10-26T14:35:02;10.30;;;2.40;;
8895;SDS011;4484;48.928;10.066;2022-10-26T14:40:23;4.13;;;1.50;;
8895;SDS011;4484;48.928;10.066;2022-10-26T14:42:53;5.30;;;1.90;;
8895;SDS011;4484;48.928;10.066;2022-10-26T14:48:20;7.55;;;1.80;;
8895;SDS011;4484;48.928;10.066;2022-10-26T14:54:01;5.13;;;1.65;;
8895;SDS011;4484;48.928;10.066;2022-10-26T14:56:30;5.65;;;1.75;;
8895;SDS011;4484;48.928;10.066;2022-10-26T14:59:09;3.47;;;1.80;;
8895;SDS011;4484;48.928;10.066;2022-10-26T15:01:50;6.03;;;2.03;;
8895;SDS011;4484;48.928;10.066;2022-10-26T15:04:35;4.97;;;1.80;;
8895;SDS011;4484;48.928;10.066;2022-10-26T15:07:07;8.15;;;2.30;;
8895;SDS011;4484;48.928;10.066;2022-10-26T15:09:40;8.20;;;2.15;;
8895;SDS011;4484;48.928;10.066;2022-10-26T15:12:21;6.55;;;2.05;;
8895;SDS011;4484;48.928;10.066;2022-10-26T15:14:53;7.25;;;2.22;;
8895;SDS011;4484;48.928;10.066;2022-10-26T15:17:34;6.40;;;2.47;;
8895;SDS011;4484;48.928;10.066;2022-10-26T15:20:05;6.43;;;3.20;;
8895;SDS011;4484;48.928;10.066;2022-10-26T15:22:37;4.40;;;2.10;;
8895;SDS011;4484;48.928;10.066;2022-10-26T15:25:05;6.47;;;2.33;;
8895;SDS011;4484;48.928;10.066;2022-10-26T15:27:33;4.50;;;1.98;;
8895;SDS011;4484;48.928;10.066;2022-10-26T15:30:34;3.70;;;1.85;;
8895;SDS011;4484;48.928;10.066;2022-10-26T15:32:53;6.57;;;2.23;;
8895;SDS011;4484;48.928;10.066;2022-10-26T15:35:24;5.07;;;1.70;;
8895;SDS011;4484;48.928;10.066;2022-10-26T15:37:55;8.07;;;2.37;;
8895;SDS011;4484;48.928;10.066;2022-10-26T15:40:24;4.83;;;1.87;;
8895;SDS011;4484;48.928;10.066;2022-10-26T15:42:52;4.83;;;1.73;;
8895;SDS011;4484;48.928;10.066;2022-10-26T15:45:24;3.57;;;1.70;;
8895;SDS011;4484;48.928;10.066;2022-10-26T15:48:13;3.70;;;1.97;;
8895;SDS011;4484;48.928;10.066;2022-10-26T15:50:48;4.90;;;3.40;;
8895;SDS011;4484;48.928;10.066;2022-10-26T15:53:17;14.77;;;7.90;;
8895;SDS011;4484;48.928;10.066;2022-10-26T15:55:46;12.30;;;8.20;;
8895;SDS011;4484;48.928;10.066;2022-10-26T15:58:14;14.97;;;8.23;;
8895;SDS011;4484;48.928;10.066;2022-10-26T16:00:42;9.10;;;6.53;;
8895;SDS011;4484;48.928;10.066;2022-10-26T16:03:11;11.13;;;5.60;;
8895;SDS011;4484;48.928;10.066;2022-10-26T16:05:40;6.10;;;4.57;;
8895;SDS011;4484;48.928;10.066;2022-10-26T16:08:10;6.70;;;4.20;;
8895;SDS011;4484;48.928;10.066;2022-10-26T16:10:43;7.57;;;3.70;;
8895;SDS011;4484;48.928;10.066;2022-10-26T16:13:11;4.73;;;3.30;;
8895;SDS011;4484;48.928;10.066;2022-10-26T16:15:39;4.07;;;3.10;;
8895;SDS011;4484;48.928;10.066;2022-10-26T16:18:06;3.33;;;2.37;;
8895;SDS011;4484;48.928;10.066;2022-10-26T16:20:34;3.30;;;2.50;;
8895;SDS011;4484;48.928;10.066;2022-10-26T16:23:01;3.23;;;2.33;;
8895;SDS011;4484;48.928;10.066;2022-10-26T16:25:33;4.47;;;2.83;;
8895;SDS011;4484;48.928;10.066;2022-10-26T16:28:05;4.80;;;2.77;;
8895;SDS011;4484;48.928;10.066;2022-10-26T16:30:36;2.70;;;2.00;;
8895;SDS011;4484;48.928;10.066;2022-10-26T16:33:04;2.70;;;2.13;;
8895;SDS011;4484;48.928;10.066;2022-10-26T16:35:31;3.43;;;2.23;;
8895;SDS011;4484;48.928;10.066;2022-10-26T16:37:59;2.60;;;1.80;;
8895;SDS011;4484;48.928;10.066;2022-10-26T16:40:29;2.90;;;2.07;;
8895;SDS011;4484;48.928;10.066;2022-10-26T16:42:57;5.27;;;1.90;;
8895;SDS011;4484;48.928;10.066;2022-10-26T16:45:24;2.87;;;1.57;;
8895;SDS011;4484;48.928;10.066;2022-10-26T16:47:57;5.83;;;3.77;;
8895;SDS011;4484;48.928;10.066;2022-10-26T16:50:24;7.50;;;3.23;;
8895;SDS011;4484;48.928;10.066;2022-10-26T16:52:51;4.23;;;2.43;;
8895;SDS011;4484;48.928;10.066;2022-10-26T16:55:19;3.97;;;3.07;;
8895;SDS011;4484;48.928;10.066;2022-10-26T16:57:49;9.13;;;4.53;;
8895;SDS011;4484;48.928;10.066;2022-10-26T17:00:17;5.33;;;3.40;;
8895;SDS011;4484;48.928;10.066;2022-10-26T17:02:44;5.87;;;3.80;;
8895;SDS011;4484;48.928;10.066;2022-10-26T17:05:11;7.73;;;3.63;;
8895;SDS011;4484;48.928;10.066;2022-10-26T17:07:38;11.00;;;4.73;;
8895;SDS011;4484;48.928;10.066;2022-10-26T17:10:05;5.50;;;3.27;;
8895;SDS011;4484;48.928;10.066;2022-10-26T17:12:32;8.77;;;3.90;;
8895;SDS011;4484;48.928;10.066;2022-10-26T17:14:59;5.03;;;3.60;;
8895;SDS011;4484;48.928;10.066;2022-10-26T17:17:26;10.53;;;6.40;;
8895;SDS011;4484;48.928;10.066;2022-10-26T17:19:53;7.60;;;5.40;;
8895;SDS011;4484;48.928;10.066;2022-10-26T17:22:20;7.87;;;5.33;;
8895;SDS011;4484;48.928;10.066;2022-10-26T17:24:47;9.67;;;5.97;;
8895;SDS011;4484;48.928;10.066;2022-10-26T17:27:14;8.87;;;6.57;;
8895;SDS011;4484;48.928;10.066;2022-10-26T17:29:42;10.37;;;6.83;;
8895;SDS011;4484;48.928;10.066;2022-10-26T17:32:09;10.23;;;6.80;;
8895;SDS011;4484;48.928;10.066;2022-10-26T17:34:36;8.43;;;6.27;;
8895;SDS011;4484;48.928;10.066;2022-10-26T17:37:04;7.93;;;6.70;;
8895;SDS011;4484;48.928;10.066;2022-10-26T17:39:32;11.53;;;7.97;;
8895;SDS011;4484;48.928;10.066;2022-10-26T17:42:00;8.77;;;7.27;;
8895;SDS011;4484;48.928;10.066;2022-10-26T17:44:27;9.17;;;6.70;;
8895;SDS011;4484;48.928;10.066;2022-10-26T17:46:54;10.00;;;6.97;;
8895;SDS011;4484;48.928;10.066;2022-10-26T17:49:21;8.50;;;6.53;;
8895;SDS011;4484;48.928;10.066;2022-10-26T17:51:54;8.83;;;6.60;;
8895;SDS011;4484;48.928;10.066;2022-10-26T17:54:21;9.70;;;6.20;;
8895;SDS011;4484;48.928;10.066;2022-10-26T17:56:48;8.80;;;6.20;;
8895;SDS011;4484;48.928;10.066;2022-10-26T17:59:15;9.10;;;6.20;;
8895;SDS011;4484;48.928;10.066;2022-10-26T18:01:44;7.90;;;5.90;;
8895;SDS011;4484;48.928;10.066;2022-10-26T18:04:11;6.40;;;5.03;;